createdAt,value
2018-04-06T00:00:53.857Z,4.96
2018-04-06T00:03:21.349Z,4.90
2018-04-06T00:05:48.996Z,4.87
2018-04-06T00:08:16.448Z,4.82
2018-04-06T00:10:44.035Z,4.73
2018-04-06T00:13:11.634Z,4.67
2018-04-06T00:15:39.162Z,4.69
2018-04-06T00:18:06.666Z,4.66
2018-04-06T00:20:34.204Z,4.62
2018-04-06T00:23:01.666Z,4.58
2018-04-06T00:25:29.135Z,4.60
2018-04-06T00:27:56.730Z,4.59
2018-04-06T00:30:24.294Z,4.54
2018-04-06T00:35:28.546Z,4.48
2018-04-06T00:37:56.044Z,4.47
2018-04-06T00:40:24.506Z,4.40
2018-04-06T00:42:51.980Z,4.34
2018-04-06T00:45:19.451Z,4.31
2018-04-06T00:47:46.920Z,4.30
2018-04-06T00:50:14.390Z,4.28
2018-04-06T00:52:41.889Z,4.27
2018-04-06T00:55:09.357Z,4.28
2018-04-06T00:57:36.836Z,4.30
2018-04-06T01:00:04.320Z,4.36
2018-04-06T01:02:31.879Z,4.39
2018-04-06T01:04:59.330Z,4.32
2018-04-06T01:07:26.829Z,4.25
2018-04-06T01:09:54.318Z,4.22
2018-04-06T01:12:21.773Z,4.20
2018-04-06T01:14:49.270Z,4.17
2018-04-06T01:17:16.735Z,4.17
2018-04-06T01:19:44.288Z,4.17
2018-04-06T01:22:11.975Z,4.13
2018-04-06T01:24:39.447Z,4.09
2018-04-06T01:27:06.945Z,4.07
2018-04-06T01:29:34.406Z,4.08
2018-04-06T01:32:01.889Z,4.07
2018-04-06T01:34:29.468Z,4.04
2018-04-06T01:36:56.981Z,4.10
2018-04-06T01:39:24.459Z,4.05
2018-04-06T01:41:51.933Z,4.10
2018-04-06T01:44:19.637Z,4.05
2018-04-06T01:46:47.100Z,3.97
2018-04-06T01:49:14.586Z,3.91
2018-04-06T01:51:42.048Z,3.86
2018-04-06T01:54:09.492Z,3.80
2018-04-06T01:56:37.055Z,3.75
2018-04-06T01:59:04.538Z,3.76
2018-04-06T02:01:32.064Z,3.79
2018-04-06T02:03:59.532Z,3.73
2018-04-06T02:06:27.006Z,3.73
2018-04-06T02:08:54.477Z,3.73
2018-04-06T02:11:21.963Z,3.65
2018-04-06T02:13:49.439Z,3.61
2018-04-06T02:16:16.908Z,3.53
2018-04-06T02:18:44.390Z,3.53
2018-04-06T02:21:11.852Z,3.48
2018-04-06T02:23:39.330Z,3.40
2018-04-06T02:26:06.834Z,3.42
2018-04-06T02:28:34.339Z,3.44
2018-04-06T02:31:01.798Z,3.44
2018-04-06T02:33:29.345Z,3.45
2018-04-06T02:35:56.811Z,3.41
2018-04-06T02:38:24.282Z,3.37
2018-04-06T02:40:51.760Z,3.35
2018-04-06T02:43:19.226Z,3.32
2018-04-06T02:45:46.931Z,3.31
2018-04-06T02:48:14.411Z,3.29
2018-04-06T02:50:41.891Z,3.22
2018-04-06T02:53:09.542Z,3.22
2018-04-06T02:55:37.043Z,3.21
2018-04-06T02:58:04.569Z,3.21
2018-04-06T03:00:32.270Z,3.16
2018-04-06T03:02:59.758Z,3.15
2018-04-06T03:05:27.224Z,3.12
2018-04-06T03:07:54.721Z,3.17
2018-04-06T03:10:22.418Z,3.14
2018-04-06T03:12:49.886Z,3.12
2018-04-06T03:15:17.415Z,3.11
2018-04-06T03:17:44.895Z,3.06
2018-04-06T03:20:12.345Z,3.04
2018-04-06T03:22:39.807Z,2.98
2018-04-06T03:25:07.356Z,3.00
2018-04-06T03:27:34.848Z,2.94
2018-04-06T03:30:02.648Z,2.90
2018-04-06T03:32:30.116Z,2.93
2018-04-06T03:34:57.654Z,2.90
2018-04-06T03:37:25.169Z,2.92
2018-04-06T03:39:52.646Z,2.97
2018-04-06T03:42:20.128Z,2.96
2018-04-06T03:44:47.680Z,2.93
2018-04-06T03:47:15.165Z,2.90
2018-04-06T03:49:42.653Z,2.91
2018-04-06T03:52:10.108Z,2.91
2018-04-06T03:54:37.856Z,2.91
2018-04-06T03:57:05.326Z,2.93
2018-04-06T03:59:32.847Z,2.89
2018-04-06T04:02:00.308Z,2.88
2018-04-06T04:04:27.785Z,2.89
2018-04-06T04:06:55.250Z,3.02
2018-04-06T04:09:22.759Z,3.02
2018-04-06T04:11:50.257Z,3.03
2018-04-06T04:14:17.873Z,3.09
2018-04-06T04:16:45.328Z,3.07
2018-04-06T04:19:12.830Z,3.00
2018-04-06T04:21:40.350Z,2.99
2018-04-06T04:24:07.867Z,3.04
2018-04-06T04:26:35.405Z,3.08
2018-04-06T04:29:02.925Z,3.01
2018-04-06T04:31:30.402Z,3.04
2018-04-06T04:33:57.941Z,3.09
2018-04-06T04:36:25.410Z,3.10
2018-04-06T04:38:52.869Z,3.17
2018-04-06T04:41:20.352Z,3.20
2018-04-06T04:43:47.824Z,3.21
2018-04-06T04:46:15.325Z,3.21
2018-04-06T04:48:42.793Z,3.24
2018-04-06T04:51:10.269Z,3.23
2018-04-06T04:53:37.764Z,3.20
2018-04-06T04:56:05.301Z,3.21
2018-04-06T04:58:32.851Z,3.16
2018-04-06T05:01:00.337Z,3.16
2018-04-06T05:03:27.936Z,3.20
2018-04-06T05:05:55.387Z,3.18
2018-04-06T05:08:22.851Z,3.19
2018-04-06T05:10:50.315Z,3.19
2018-04-06T05:13:17.797Z,3.18
2018-04-06T05:15:45.292Z,3.19
2018-04-06T05:18:13.025Z,3.24
2018-04-06T05:20:40.528Z,3.26
2018-04-06T05:23:08.033Z,3.34
2018-04-06T05:25:35.612Z,3.40
2018-04-06T05:28:03.105Z,3.52
2018-04-06T05:30:30.714Z,3.54
2018-04-06T05:32:58.225Z,3.57
2018-04-06T05:35:25.773Z,3.65
2018-04-06T05:37:53.284Z,3.74
2018-04-06T05:40:20.795Z,3.75
2018-04-06T05:42:48.268Z,3.78
2018-04-06T05:45:15.743Z,3.88
2018-04-06T05:47:43.197Z,3.90
2018-04-06T05:50:10.796Z,3.95
2018-04-06T05:52:38.286Z,4.10
2018-04-06T05:55:05.754Z,4.20
2018-04-06T05:57:33.224Z,4.30
2018-04-06T06:00:00.703Z,4.37
2018-04-06T06:02:28.200Z,4.49
2018-04-06T06:04:55.690Z,4.55
2018-04-06T06:07:23.171Z,4.61
2018-04-06T06:09:50.685Z,4.70
2018-04-06T06:12:18.215Z,4.81
2018-04-06T06:14:45.732Z,4.96
2018-04-06T06:17:13.346Z,5.09
2018-04-06T06:19:40.829Z,5.20
2018-04-06T06:22:08.332Z,5.30
2018-04-06T06:24:35.964Z,5.45
2018-04-06T06:27:03.433Z,5.49
2018-04-06T06:29:34.941Z,5.62
2018-04-06T06:32:02.453Z,5.74
2018-04-06T06:34:29.927Z,5.83
2018-04-06T06:36:57.406Z,5.89
2018-04-06T06:39:25.084Z,6.04
2018-04-06T06:41:52.651Z,6.12
2018-04-06T06:44:20.147Z,6.19
2018-04-06T06:46:47.634Z,6.26
2018-04-06T06:49:15.110Z,6.37
2018-04-06T06:51:42.596Z,6.56
2018-04-06T06:54:10.067Z,6.73
2018-04-06T06:56:37.580Z,6.94
2018-04-06T06:59:05.083Z,7.08
2018-04-06T07:01:32.666Z,7.20
2018-04-06T07:04:00.144Z,7.40
2018-04-06T07:06:27.629Z,7.64
2018-04-06T07:08:55.097Z,7.68
2018-04-06T07:11:22.622Z,7.81
2018-04-06T07:13:50.106Z,8.08
2018-04-06T07:16:17.616Z,8.26
2018-04-06T07:18:45.168Z,8.48
2018-04-06T07:21:12.649Z,8.75
2018-04-06T07:23:40.239Z,8.88
2018-04-06T07:26:07.729Z,8.78
2018-04-06T07:28:35.229Z,8.90
2018-04-06T07:31:02.701Z,9.05
2018-04-06T07:33:30.169Z,9.14
2018-04-06T07:35:57.651Z,9.09
2018-04-06T07:38:25.330Z,9.09
2018-04-06T07:40:52.816Z,9.04
2018-04-06T07:43:20.308Z,8.97
2018-04-06T07:45:47.907Z,8.93
2018-04-06T07:48:15.376Z,9.00
2018-04-06T07:50:43.940Z,9.15
2018-04-06T07:53:11.616Z,9.19
2018-04-06T07:55:39.087Z,9.24
2018-04-06T07:58:07.419Z,9.44
2018-04-06T08:00:34.897Z,9.62
2018-04-06T08:03:08.082Z,9.67
2018-04-06T08:05:37.171Z,9.80
2018-04-06T08:08:08.200Z,9.88
2018-04-06T08:10:37.197Z,10.01
2018-04-06T08:13:04.735Z,10.03
2018-04-06T08:15:32.223Z,10.77
2018-04-06T08:17:59.715Z,11.52
2018-04-06T08:20:27.351Z,12.46
2018-04-06T08:22:54.819Z,12.70
2018-04-06T08:25:22.402Z,12.71
2018-04-06T08:27:50.006Z,13.30
2018-04-06T08:30:17.546Z,12.68
2018-04-06T08:32:45.041Z,12.14
2018-04-06T08:35:12.520Z,11.85
2018-04-06T08:37:40.037Z,11.82
2018-04-06T08:40:07.556Z,11.58
2018-04-06T08:42:35.130Z,11.55
2018-04-06T08:45:02.619Z,11.66
2018-04-06T08:47:30.119Z,11.63
2018-04-06T08:49:57.637Z,11.69
2018-04-06T08:52:25.128Z,11.74
2018-04-06T08:54:52.647Z,11.80
2018-04-06T08:57:20.096Z,11.78
2018-04-06T08:59:47.567Z,11.73
2018-04-06T09:02:15.177Z,11.84
2018-04-06T09:04:42.827Z,11.97
2018-04-06T09:07:10.252Z,12.04
2018-04-06T09:09:37.805Z,12.09
2018-04-06T09:12:05.408Z,12.23
2018-04-06T09:14:32.922Z,12.47
2018-04-06T09:17:00.575Z,12.53
2018-04-06T09:19:28.125Z,12.64
2018-04-06T09:21:55.615Z,12.53
2018-04-06T09:24:25.752Z,12.72
2018-04-06T09:26:55.300Z,12.84
2018-04-06T09:29:23.513Z,13.01
2018-04-06T09:31:51.060Z,13.10
2018-04-06T09:34:18.558Z,13.12
2018-04-06T09:36:46.033Z,13.14
2018-04-06T09:39:13.504Z,13.18
2018-04-06T09:41:40.981Z,13.05
2018-04-06T09:44:08.480Z,13.18
2018-04-06T09:46:35.991Z,13.22
2018-04-06T09:49:03.470Z,13.30
2018-04-06T09:51:30.946Z,13.42
2018-04-06T09:53:58.472Z,13.40
2018-04-06T09:56:25.980Z,13.47
2018-04-06T09:58:53.539Z,13.41
2018-04-06T10:01:21.141Z,13.51
2018-04-06T10:03:48.637Z,13.70
2018-04-06T10:06:16.115Z,13.72
2018-04-06T10:08:43.640Z,13.78
2018-04-06T10:11:11.117Z,13.91
2018-04-06T10:13:38.677Z,13.94
2018-04-06T10:16:06.236Z,14.00
2018-04-06T10:18:33.759Z,13.94
2018-04-06T10:21:01.273Z,14.09
2018-04-06T10:23:28.756Z,14.18
2018-04-06T10:25:56.230Z,14.22
2018-04-06T10:28:23.710Z,14.07
2018-04-06T10:30:51.192Z,14.22
2018-04-06T10:33:18.772Z,14.31
2018-04-06T10:35:46.230Z,14.31
2018-04-06T10:38:13.743Z,14.35
2018-04-06T10:40:41.318Z,14.36
2018-04-06T10:43:08.972Z,14.36
2018-04-06T10:45:36.467Z,14.49
2018-04-06T10:48:04.060Z,14.57
2018-04-06T10:50:31.512Z,14.68
2018-04-06T10:52:58.981Z,14.87
2018-04-06T10:55:26.518Z,14.72
2018-04-06T10:57:54.015Z,14.78
2018-04-06T11:00:21.499Z,14.73
2018-04-06T11:02:49.108Z,14.80
2018-04-06T11:05:16.576Z,14.77
2018-04-06T11:07:44.037Z,14.84
2018-04-06T11:10:11.545Z,14.95
2018-04-06T11:12:39.041Z,15.14
2018-04-06T11:15:06.562Z,15.16
2018-04-06T11:17:34.077Z,15.13
2018-04-06T11:20:01.756Z,15.04
2018-04-06T11:22:29.403Z,15.13
2018-04-06T11:24:56.906Z,15.36
2018-04-06T11:27:24.459Z,15.55
2018-04-06T11:29:51.884Z,15.58
2018-04-06T11:32:19.400Z,15.83
2018-04-06T11:34:46.879Z,15.92
2018-04-06T11:37:14.388Z,15.97
2018-04-06T11:39:41.845Z,16.20
2018-04-06T11:42:09.328Z,16.43
2018-04-06T11:44:36.819Z,16.66
2018-04-06T11:47:04.303Z,16.31
2018-04-06T11:49:31.780Z,16.72
2018-04-06T11:51:59.271Z,17.00
2018-04-06T11:54:26.782Z,17.45
2018-04-06T11:56:54.545Z,17.60
2018-04-06T11:59:22.160Z,18.17
2018-04-06T12:01:49.718Z,18.39
2018-04-06T12:04:17.239Z,18.68
2018-04-06T12:06:44.720Z,19.21
2018-04-06T12:09:12.204Z,19.84
2018-04-06T12:11:39.722Z,20.38
2018-04-06T12:14:07.357Z,21.11
2018-04-06T12:16:34.884Z,21.37
2018-04-06T12:19:02.360Z,22.05
2018-04-06T12:21:29.872Z,23.18
2018-04-06T12:23:57.329Z,23.92
2018-04-06T12:26:24.803Z,25.36
2018-04-06T12:28:52.288Z,26.11
2018-04-06T12:31:19.809Z,27.48
2018-04-06T12:33:47.297Z,28.45
2018-04-06T12:36:14.788Z,27.69
2018-04-06T12:38:42.298Z,29.14
2018-04-06T12:41:09.797Z,29.55
2018-04-06T12:43:37.284Z,30.91
2018-04-06T12:46:04.963Z,30.86
2018-04-06T12:48:32.444Z,31.53
2018-04-06T12:51:00.008Z,30.82
2018-04-06T12:53:27.482Z,31.22
2018-04-06T12:55:55.004Z,32.06
2018-04-06T12:58:22.486Z,32.37
2018-04-06T13:00:50.016Z,31.91
2018-04-06T13:03:17.518Z,32.35
2018-04-06T13:05:44.982Z,32.75
2018-04-06T13:08:12.491Z,31.94
2018-04-06T13:10:39.960Z,32.29
2018-04-06T13:13:09.328Z,33.10
2018-04-06T13:15:37.419Z,33.72
2018-04-06T13:18:04.940Z,34.13
2018-04-06T13:20:32.544Z,33.71
2018-04-06T13:23:00.295Z,32.29
2018-04-06T13:25:27.912Z,33.10
2018-04-06T13:27:55.418Z,33.88
2018-04-06T13:30:22.935Z,34.12
2018-04-06T13:32:50.418Z,34.26
2018-04-06T13:35:17.899Z,34.68
2018-04-06T13:37:45.385Z,35.33
2018-04-06T13:40:12.896Z,35.24
2018-04-06T13:42:40.415Z,34.15
2018-04-06T13:45:07.902Z,34.53
2018-04-06T13:47:35.380Z,34.31
2018-04-06T13:50:02.877Z,34.27
2018-04-06T13:52:30.341Z,34.95
2018-04-06T13:54:57.833Z,35.61
2018-04-06T13:57:25.352Z,35.17
2018-04-06T13:59:52.823Z,35.12
2018-04-06T14:02:20.461Z,34.82
2018-04-06T14:04:47.970Z,34.50
2018-04-06T14:07:15.449Z,35.11
2018-04-06T14:09:42.921Z,36.02
2018-04-06T14:12:10.403Z,35.80
2018-04-06T14:14:37.886Z,34.87
2018-04-06T14:17:05.519Z,35.97
2018-04-06T14:19:32.996Z,36.55
2018-04-06T14:22:00.479Z,36.83
2018-04-06T14:24:27.992Z,36.10
2018-04-06T14:26:55.489Z,35.98
2018-04-06T14:29:22.988Z,35.75
2018-04-06T14:31:50.483Z,36.61
2018-04-06T14:34:17.987Z,36.77
2018-04-06T14:36:45.484Z,36.38
2018-04-06T14:39:13.034Z,36.31
2018-04-06T14:41:40.509Z,35.15
2018-04-06T14:44:08.216Z,35.39
2018-04-06T14:46:35.721Z,34.67
2018-04-06T14:49:03.195Z,35.10
2018-04-06T14:51:30.800Z,34.78
2018-04-06T14:53:58.309Z,35.08
2018-04-06T14:56:25.854Z,35.10
2018-04-06T14:58:53.361Z,35.70
2018-04-06T15:01:20.825Z,35.09
2018-04-06T15:03:48.299Z,35.44
2018-04-06T15:06:15.765Z,35.92
2018-04-06T15:08:43.247Z,35.59
2018-04-06T15:11:10.734Z,35.43
2018-04-06T15:13:38.327Z,36.30
2018-04-06T15:16:05.825Z,35.41
2018-04-06T15:18:33.292Z,36.16
2018-04-06T15:21:00.776Z,35.84
2018-04-06T15:23:28.250Z,35.18
2018-04-06T15:25:55.755Z,35.17
2018-04-06T15:28:23.222Z,35.32
2018-04-06T15:30:50.765Z,35.16
2018-04-06T15:33:18.310Z,34.74
2018-04-06T15:35:45.805Z,33.85
2018-04-06T15:38:13.325Z,33.49
2018-04-06T15:40:40.802Z,33.83
2018-04-06T15:43:08.311Z,33.77
2018-04-06T15:45:35.798Z,33.11
2018-04-06T15:48:03.305Z,33.37
2018-04-06T15:50:30.768Z,33.49
2018-04-06T15:52:58.280Z,33.70
2018-04-06T15:55:25.754Z,33.57
2018-04-06T15:57:53.298Z,33.86
2018-04-06T16:00:20.826Z,33.50
2018-04-06T16:02:48.298Z,33.49
2018-04-06T16:05:15.779Z,32.40
2018-04-06T16:07:43.254Z,31.95
2018-04-06T16:10:10.760Z,32.62
2018-04-06T16:12:38.247Z,32.74
2018-04-06T16:15:05.846Z,32.90
2018-04-06T16:17:33.334Z,32.97
2018-04-06T16:20:00.816Z,32.06
2018-04-06T16:22:28.344Z,31.86
2018-04-06T16:24:55.840Z,31.71
2018-04-06T16:27:23.326Z,30.90
2018-04-06T16:29:50.871Z,30.92
2018-04-06T16:32:18.358Z,30.05
2018-04-06T16:34:45.909Z,30.01
2018-04-06T16:37:13.539Z,29.53
2018-04-06T16:39:41.037Z,29.12
2018-04-06T16:42:08.565Z,28.33
2018-04-06T16:44:36.224Z,28.88
2018-04-06T16:47:03.701Z,29.50
2018-04-06T16:49:31.221Z,29.53
2018-04-06T16:51:58.710Z,28.51
2018-04-06T16:54:26.187Z,27.23
2018-04-06T16:56:53.687Z,25.35
2018-04-06T16:59:21.181Z,23.47
2018-04-06T17:01:48.672Z,21.66
2018-04-06T17:04:16.172Z,20.87
2018-04-06T17:06:43.672Z,19.96
2018-04-06T17:09:11.144Z,19.65
2018-04-06T17:11:38.645Z,19.13
2018-04-06T17:14:06.297Z,18.79
2018-04-06T17:16:33.881Z,18.38
2018-04-06T17:19:01.356Z,18.13
2018-04-06T17:21:28.826Z,17.96
2018-04-06T17:23:56.321Z,17.77
2018-04-06T17:26:23.803Z,17.37
2018-04-06T17:28:51.435Z,17.20
2018-04-06T17:31:18.912Z,16.97
2018-04-06T17:33:46.381Z,16.73
2018-04-06T17:36:13.857Z,16.48
2018-04-06T17:38:41.302Z,16.19
2018-04-06T17:41:08.857Z,16.00
2018-04-06T17:43:36.431Z,15.86
2018-04-06T17:46:04.022Z,16.17
2018-04-06T17:48:31.572Z,15.92
2018-04-06T17:50:59.237Z,15.68
2018-04-06T17:53:26.746Z,15.45
2018-04-06T17:55:54.245Z,15.24
2018-04-06T17:58:21.729Z,15.00
2018-04-06T18:00:50.568Z,14.76
2018-04-06T18:03:18.973Z,14.64
2018-04-06T18:05:46.465Z,14.45
2018-04-06T18:08:14.369Z,14.32
2018-04-06T18:10:43.215Z,14.16
2018-04-06T18:13:14.891Z,14.02
2018-04-06T18:15:48.391Z,13.88
2018-04-06T18:18:21.846Z,13.72
2018-04-06T18:20:49.715Z,13.65
2018-04-06T18:23:17.189Z,13.51
2018-04-06T18:25:44.644Z,13.43
2018-04-06T18:28:12.147Z,13.30
2018-04-06T18:30:39.688Z,13.22
2018-04-06T18:33:07.158Z,13.16
2018-04-06T18:35:34.873Z,13.04
2018-04-06T18:38:02.360Z,12.94
2018-04-06T18:40:29.860Z,12.92
2018-04-06T18:42:57.346Z,12.83
2018-04-06T18:45:24.874Z,12.76
2018-04-06T18:47:52.339Z,12.67
2018-04-06T18:50:20.243Z,12.61
2018-04-06T18:52:47.747Z,12.51
2018-04-06T18:55:15.658Z,12.47
2018-04-06T18:57:43.135Z,12.38
2018-04-06T19:00:10.622Z,12.32
2018-04-06T19:02:38.112Z,12.31
2018-04-06T19:05:05.695Z,12.22
2018-04-06T19:07:33.190Z,12.14
2018-04-06T19:10:00.698Z,12.12
2018-04-06T19:12:28.206Z,12.06
2018-04-06T19:14:55.677Z,12.01
2018-04-06T19:17:23.219Z,11.96
2018-04-06T19:19:50.782Z,11.90
2018-04-06T19:22:18.258Z,11.87
2018-04-06T19:24:45.882Z,11.77
2018-04-06T19:27:13.380Z,11.72
2018-04-06T19:29:40.867Z,11.69
2018-04-06T19:32:08.350Z,11.62
2018-04-06T19:34:35.836Z,11.55
2018-04-06T19:37:03.375Z,11.50
2018-04-06T19:39:30.858Z,11.41
2018-04-06T19:42:06.667Z,11.37
2018-04-06T19:44:34.160Z,11.30
2018-04-06T19:47:07.991Z,11.22
2018-04-06T19:49:35.597Z,11.17
2018-04-06T19:52:04.159Z,11.14
2018-04-06T19:54:37.658Z,11.08
2018-04-06T19:57:05.306Z,11.04
2018-04-06T19:59:32.870Z,10.98
2018-04-06T20:02:10.424Z,10.99
2018-04-06T20:07:06.800Z,10.86
2018-04-06T20:09:34.290Z,10.79
2018-04-06T20:12:01.793Z,10.78
2018-04-06T20:14:29.320Z,10.78
2018-04-06T20:16:56.783Z,10.74
2018-04-06T20:19:24.249Z,10.76
2018-04-06T20:21:51.762Z,10.67
2018-04-06T20:24:19.242Z,10.60
2018-04-06T20:26:46.777Z,10.55
2018-04-06T20:29:14.254Z,10.53
2018-04-06T20:37:37.517Z,10.38
2018-04-06T20:40:05.043Z,10.34
2018-04-06T20:42:32.530Z,10.32
2018-04-06T20:45:00.002Z,10.29
2018-04-06T20:47:27.590Z,10.23
2018-04-06T20:49:55.110Z,10.22
2018-04-06T20:52:23.716Z,10.16
2018-04-06T20:54:51.210Z,10.16
2018-04-06T20:57:18.794Z,10.12
2018-04-06T20:59:46.547Z,10.06
2018-04-06T21:02:14.027Z,10.00
2018-04-06T21:04:41.513Z,9.91
2018-04-06T21:07:09.042Z,9.85
2018-04-06T21:09:36.799Z,9.80
2018-04-06T21:12:04.642Z,9.74
2018-04-06T21:14:32.263Z,9.75
2018-04-06T21:16:59.709Z,9.71
2018-04-06T21:19:27.432Z,9.64
2018-04-06T21:21:54.946Z,9.61
2018-04-06T21:24:22.476Z,9.56
2018-04-06T21:26:50.087Z,9.51
2018-04-06T21:29:17.590Z,9.52
2018-04-06T21:31:45.092Z,9.47
2018-04-06T21:34:12.620Z,9.50
2018-04-06T21:36:40.135Z,9.49
2018-04-06T21:39:07.595Z,9.46
2018-04-06T21:41:35.115Z,9.47
2018-04-06T21:44:02.780Z,9.46
2018-04-06T21:46:30.341Z,9.46
2018-04-06T21:48:57.822Z,9.43
2018-04-06T21:51:25.322Z,9.38
2018-04-06T21:53:52.899Z,9.36
2018-04-06T21:56:20.431Z,9.33
2018-04-06T21:58:48.179Z,9.31
2018-04-06T22:01:15.689Z,9.25
2018-04-06T22:03:43.352Z,9.23
2018-04-06T22:06:10.844Z,9.23
2018-04-06T22:08:38.361Z,9.20
2018-04-06T22:11:05.983Z,9.16
2018-04-06T22:13:33.534Z,9.13
2018-04-06T22:16:01.024Z,9.08
2018-04-06T22:18:28.490Z,9.07
2018-04-06T22:20:56.135Z,9.09
2018-04-06T22:23:23.619Z,9.13
2018-04-06T22:25:51.116Z,9.12
2018-04-06T22:28:18.611Z,9.11
2018-04-06T22:30:46.082Z,9.10
2018-04-06T22:33:13.601Z,9.12
2018-04-06T22:35:41.267Z,9.17
2018-04-06T22:38:08.744Z,9.16
2018-04-06T22:40:36.248Z,9.15
2018-04-06T22:43:03.731Z,9.14
2018-04-06T22:45:31.204Z,9.11
2018-04-06T22:47:58.732Z,9.06
2018-04-06T22:50:26.203Z,9.07
2018-04-06T22:52:53.657Z,9.01
2018-04-06T22:55:21.193Z,9.03
2018-04-06T22:57:48.782Z,9.02
2018-04-06T23:00:16.307Z,8.98
2018-04-06T23:02:43.840Z,8.98
2018-04-06T23:05:11.361Z,8.96
2018-04-06T23:07:38.854Z,8.89
2018-04-06T23:10:06.344Z,8.87
2018-04-06T23:12:33.837Z,8.84
2018-04-06T23:15:01.328Z,8.83
2018-04-06T23:17:28.822Z,8.83
2018-04-06T23:19:56.284Z,8.84
2018-04-06T23:22:23.750Z,8.80
2018-04-06T23:24:51.248Z,8.83
2018-04-06T23:27:18.811Z,8.82
2018-04-06T23:29:46.293Z,8.75
2018-04-06T23:32:13.751Z,8.74
2018-04-06T23:34:41.251Z,8.73
2018-04-06T23:37:08.751Z,8.74
2018-04-06T23:39:36.253Z,8.70
2018-04-06T23:42:03.759Z,8.67
2018-04-06T23:44:31.246Z,8.62
2018-04-06T23:46:58.735Z,8.54
2018-04-06T23:49:26.261Z,8.52
2018-04-06T23:51:53.787Z,8.48
2018-04-06T23:54:21.284Z,8.44
2018-04-06T23:56:48.764Z,8.41
2018-04-06T23:59:16.235Z,8.39
